EDDK/CGN METAR and TAF weather

Enter ICAO airport designator
Station Type Date Time Source
EDDK METAR 2020/06/06 13:20 UTC NOAA

EDDK 061320Z 24018KT CAVOK 18/03 Q1001 NOSIG


Station Type Date Time Source
EDDK Decoded METAR 2020/06/06 13:20 UTC NOAA

Koeln / Bonn, Germany (EDDK) 50-52N 007-10E 100M
Jun 06, 2020 - 09:20 AM EDT / 2020.06.06 1320 UTC
Wind: from the WSW (240 degrees) at 21 MPH (18 KT):0
Visibility: greater than 7 mile(s):0
Temperature: 64 F (18 C)
Dew Point: 37 F (3 C)
Relative Humidity: 36%
Pressure (altimeter): 29.56 in. Hg (1001 hPa)
ob: EDDK 061320Z 24018KT CAVOK 18/03 Q1001 NOSIG
cycle: 13

Station Type Date Time Source
EDDK TAF 2020/06/06 12:27 UTC NOAA

TAF EDDK 061100Z 0612/0718 21010KT 9999 SCT040
TEMPO 0612/0617 24015G25KT
BECMG 0617/0620 17005KT
BECMG 0706/0708 25008KT

Example: see airport list